sensor_id;sensor_type;location;lat;lon;timestamp;temperature;humidity
21849;DHT22;11089;49.852;19.700;2023-02-04T00:02:34;2.30;99.90
21849;DHT22;11089;49.852;19.700;2023-02-04T00:05:35;2.30;99.90
21849;DHT22;11089;49.852;19.700;2023-02-04T00:08:36;2.30;99.90
21849;DHT22;11089;49.852;19.700;2023-02-04T00:11:37;2.40;99.90
21849;DHT22;11089;49.852;19.700;2023-02-04T00:14:38;2.40;99.90
21849;DHT22;11089;49.852;19.700;2023-02-04T00:17:39;2.40;99.90
21849;DHT22;11089;49.852;19.700;2023-02-04T00:20:40;2.40;99.90
21849;DHT22;11089;49.852;19.700;2023-02-04T00:23:41;2.40;99.90
21849;DHT22;11089;49.852;19.700;2023-02-04T00:26:41;2.30;99.90
21849;DHT22;11089;49.852;19.700;2023-02-04T00:29:42;2.30;99.90
21849;DHT22;11089;49.852;19.700;2023-02-04T00:32:43;2.30;99.90
21849;DHT22;11089;49.852;19.700;2023-02-04T00:35:44;2.30;99.90
21849;DHT22;11089;49.852;19.700;2023-02-04T00:38:45;2.30;99.90
21849;DHT22;11089;49.852;19.700;2023-02-04T00:41:46;2.20;99.90
21849;DHT22;11089;49.852;19.700;2023-02-04T00:44:47;2.20;99.90
21849;DHT22;11089;49.852;19.700;2023-02-04T00:47:48;2.20;99.90
21849;DHT22;11089;49.852;19.700;2023-02-04T00:50:49;2.20;99.90
21849;DHT22;11089;49.852;19.700;2023-02-04T00:53:50;2.20;99.90
21849;DHT22;11089;49.852;19.700;2023-02-04T00:56:51;2.10;99.90
21849;DHT22;11089;49.852;19.700;2023-02-04T00:59:52;2.20;99.90
21849;DHT22;11089;49.852;19.700;2023-02-04T01:02:53;2.10;99.90
21849;DHT22;11089;49.852;19.700;2023-02-04T01:05:54;2.20;99.90
21849;DHT22;11089;49.852;19.700;2023-02-04T01:08:55;2.20;99.90
21849;DHT22;11089;49.852;19.700;2023-02-04T01:11:55;2.20;99.90
21849;DHT22;11089;49.852;19.700;2023-02-04T01:14:56;2.20;99.90
21849;DHT22;11089;49.852;19.700;2023-02-04T01:17:57;2.20;99.90
21849;DHT22;11089;49.852;19.700;2023-02-04T01:20:58;2.20;99.90
21849;DHT22;11089;49.852;19.700;2023-02-04T01:23:59;2.20;99.90
21849;DHT22;11089;49.852;19.700;2023-02-04T01:27:00;2.20;99.90
21849;DHT22;11089;49.852;19.700;2023-02-04T01:30:03;2.20;99.90
21849;DHT22;11089;49.852;19.700;2023-02-04T01:33:05;2.20;99.90
21849;DHT22;11089;49.852;19.700;2023-02-04T01:36:06;2.20;99.90
21849;DHT22;11089;49.852;19.700;2023-02-04T01:39:07;2.20;99.90
21849;DHT22;11089;49.852;19.700;2023-02-04T01:42:08;2.20;99.90
21849;DHT22;11089;49.852;19.700;2023-02-04T01:45:10;2.20;99.90
21849;DHT22;11089;49.852;19.700;2023-02-04T01:48:11;2.20;99.90
21849;DHT22;11089;49.852;19.700;2023-02-04T01:51:24;2.20;99.90
21849;DHT22;11089;49.852;19.700;2023-02-04T01:54:27;2.10;99.90
21849;DHT22;11089;49.852;19.700;2023-02-04T01:57:28;2.20;99.90
21849;DHT22;11089;49.852;19.700;2023-02-04T02:00:31;2.20;99.90
21849;DHT22;11089;49.852;19.700;2023-02-04T02:03:32;2.20;99.90
21849;DHT22;11089;49.852;19.700;2023-02-04T02:06:34;2.20;99.90
21849;DHT22;11089;49.852;19.700;2023-02-04T02:09:35;2.10;99.90
21849;DHT22;11089;49.852;19.700;2023-02-04T02:12:37;2.20;99.90
21849;DHT22;11089;49.852;19.700;2023-02-04T02:15:39;2.10;99.90
21849;DHT22;11089;49.852;19.700;2023-02-04T02:18:40;2.20;99.90
21849;DHT22;11089;49.852;19.700;2023-02-04T02:21:46;2.20;99.90
21849;DHT22;11089;49.852;19.700;2023-02-04T02:24:49;2.20;99.90
21849;DHT22;11089;49.852;19.700;2023-02-04T02:27:50;2.20;99.90
21849;DHT22;11089;49.852;19.700;2023-02-04T02:30:51;2.20;99.90
21849;DHT22;11089;49.852;19.700;2023-02-04T02:33:52;2.20;99.90
21849;DHT22;11089;49.852;19.700;2023-02-04T02:36:54;2.20;99.90
21849;DHT22;11089;49.852;19.700;2023-02-04T02:39:55;2.20;99.90
21849;DHT22;11089;49.852;19.700;2023-02-04T02:42:56;2.20;99.90
21849;DHT22;11089;49.852;19.700;2023-02-04T02:45:58;2.10;99.90
21849;DHT22;11089;49.852;19.700;2023-02-04T02:49:00;2.10;99.90
21849;DHT22;11089;49.852;19.700;2023-02-04T02:52:01;2.20;99.90
21849;DHT22;11089;49.852;19.700;2023-02-04T02:55:02;2.10;99.90
21849;DHT22;11089;49.852;19.700;2023-02-04T02:58:04;2.00;99.90
21849;DHT22;11089;49.852;19.700;2023-02-04T03:01:07;1.90;99.90
21849;DHT22;11089;49.852;19.700;2023-02-04T03:04:09;1.90;99.90
21849;DHT22;11089;49.852;19.700;2023-02-04T03:07:11;1.80;99.90
21849;DHT22;11089;49.852;19.700;2023-02-04T03:10:15;1.70;99.90
21849;DHT22;11089;49.852;19.700;2023-02-04T03:13:17;1.80;99.90
21849;DHT22;11089;49.852;19.700;2023-02-04T03:16:19;1.70;99.90
21849;DHT22;11089;49.852;19.700;2023-02-04T03:19:20;1.80;99.90
21849;DHT22;11089;49.852;19.700;2023-02-04T03:22:22;1.80;99.90
21849;DHT22;11089;49.852;19.700;2023-02-04T03:25:24;1.80;99.90
21849;DHT22;11089;49.852;19.700;2023-02-04T03:28:28;1.70;99.90
21849;DHT22;11089;49.852;19.700;2023-02-04T03:31:30;1.70;99.90
21849;DHT22;11089;49.852;19.700;2023-02-04T03:34:30;1.70;99.90
21849;DHT22;11089;49.852;19.700;2023-02-04T03:37:31;1.70;99.90
21849;DHT22;11089;49.852;19.700;2023-02-04T03:40:32;1.70;99.90
21849;DHT22;11089;49.852;19.700;2023-02-04T03:43:33;1.60;99.90
21849;DHT22;11089;49.852;19.700;2023-02-04T03:46:34;1.50;99.90
21849;DHT22;11089;49.852;19.700;2023-02-04T03:49:35;1.50;99.90
21849;DHT22;11089;49.852;19.700;2023-02-04T03:52:36;1.50;99.90
21849;DHT22;11089;49.852;19.700;2023-02-04T03:55:37;1.50;99.90
21849;DHT22;11089;49.852;19.700;2023-02-04T03:58:38;1.50;99.90
21849;DHT22;11089;49.852;19.700;2023-02-04T04:01:39;1.50;99.90
21849;DHT22;11089;49.852;19.700;2023-02-04T04:04:40;1.50;99.90
21849;DHT22;11089;49.852;19.700;2023-02-04T04:07:41;1.50;99.90
21849;DHT22;11089;49.852;19.700;2023-02-04T04:10:42;1.50;99.90
21849;DHT22;11089;49.852;19.700;2023-02-04T04:13:43;1.50;99.90
21849;DHT22;11089;49.852;19.700;2023-02-04T04:16:44;1.40;99.90
21849;DHT22;11089;49.852;19.700;2023-02-04T04:19:44;1.40;99.90
21849;DHT22;11089;49.852;19.700;2023-02-04T04:22:45;1.40;99.90
21849;DHT22;11089;49.852;19.700;2023-02-04T04:25:46;1.30;99.90
21849;DHT22;11089;49.852;19.700;2023-02-04T04:28:47;1.40;99.90
21849;DHT22;11089;49.852;19.700;2023-02-04T04:31:48;1.30;99.90
21849;DHT22;11089;49.852;19.700;2023-02-04T04:34:49;1.30;99.90
21849;DHT22;11089;49.852;19.700;2023-02-04T04:37:50;1.30;99.90
21849;DHT22;11089;49.852;19.700;2023-02-04T04:40:51;1.20;99.90
21849;DHT22;11089;49.852;19.700;2023-02-04T04:43:52;1.20;99.90
21849;DHT22;11089;49.852;19.700;2023-02-04T04:46:53;1.20;99.90
21849;DHT22;11089;49.852;19.700;2023-02-04T04:49:54;1.20;99.90
21849;DHT22;11089;49.852;19.700;2023-02-04T04:52:55;1.20;99.90
21849;DHT22;11089;49.852;19.700;2023-02-04T04:55:56;1.10;99.90
21849;DHT22;11089;49.852;19.700;2023-02-04T04:58:57;1.20;99.90
21849;DHT22;11089;49.852;19.700;2023-02-04T05:01:58;1.10;99.90
21849;DHT22;11089;49.852;19.700;2023-02-04T05:04:59;1.00;99.90
21849;DHT22;11089;49.852;19.700;2023-02-04T05:07:59;1.00;99.90
21849;DHT22;11089;49.852;19.700;2023-02-04T05:11:01;1.00;99.90
21849;DHT22;11089;49.852;19.700;2023-02-04T05:14:02;1.00;99.90
21849;DHT22;11089;49.852;19.700;2023-02-04T05:17:03;0.90;99.90
21849;DHT22;11089;49.852;19.700;2023-02-04T05:20:05;0.80;99.90
21849;DHT22;11089;49.852;19.700;2023-02-04T05:23:06;0.60;99.90
21849;DHT22;11089;49.852;19.700;2023-02-04T05:26:07;0.40;99.90
21849;DHT22;11089;49.852;19.700;2023-02-04T05:29:08;0.40;99.90
21849;DHT22;11089;49.852;19.700;2023-02-04T05:32:09;0.30;99.90
21849;DHT22;11089;49.852;19.700;2023-02-04T05:35:11;0.20;99.90
21849;DHT22;11089;49.852;19.700;2023-02-04T05:38:12;0.20;99.90
21849;DHT22;11089;49.852;19.700;2023-02-04T05:41:12;0.10;99.90
21849;DHT22;11089;49.852;19.700;2023-02-04T05:44:13;0.10;99.90
21849;DHT22;11089;49.852;19.700;2023-02-04T05:47:14;0.10;99.90
21849;DHT22;11089;49.852;19.700;2023-02-04T05:50:16;0.00;99.90
21849;DHT22;11089;49.852;19.700;2023-02-04T05:53:17;0.00;99.90
21849;DHT22;11089;49.852;19.700;2023-02-04T05:56:18;0.00;99.90
21849;DHT22;11089;49.852;19.700;2023-02-04T05:59:18;-0.10;99.90
21849;DHT22;11089;49.852;19.700;2023-02-04T06:02:19;-0.20;99.90
21849;DHT22;11089;49.852;19.700;2023-02-04T06:05:20;-0.30;99.90
21849;DHT22;11089;49.852;19.700;2023-02-04T06:08:23;-0.30;99.90
21849;DHT22;11089;49.852;19.700;2023-02-04T06:11:23;-0.30;99.90
21849;DHT22;11089;49.852;19.700;2023-02-04T06:14:24;-0.40;99.90
21849;DHT22;11089;49.852;19.700;2023-02-04T06:17:25;-0.40;99.90
21849;DHT22;11089;49.852;19.700;2023-02-04T06:20:26;-0.30;99.90
21849;DHT22;11089;49.852;19.700;2023-02-04T06:23:27;-0.40;99.90
21849;DHT22;11089;49.852;19.700;2023-02-04T06:26:28;-0.40;99.90
21849;DHT22;11089;49.852;19.700;2023-02-04T06:29:29;-0.40;99.90
21849;DHT22;11089;49.852;19.700;2023-02-04T06:32:30;-0.30;99.90
21849;DHT22;11089;49.852;19.700;2023-02-04T06:35:31;-0.50;99.90
21849;DHT22;11089;49.852;19.700;2023-02-04T06:38:32;-0.30;99.90
21849;DHT22;11089;49.852;19.700;2023-02-04T06:41:33;-0.40;99.90
21849;DHT22;11089;49.852;19.700;2023-02-04T06:44:34;-0.50;99.90
21849;DHT22;11089;49.852;19.700;2023-02-04T06:47:35;-0.70;99.90
21849;DHT22;11089;49.852;19.700;2023-02-04T06:50:36;-0.60;99.90
21849;DHT22;11089;49.852;19.700;2023-02-04T06:53:36;-0.60;99.90
21849;DHT22;11089;49.852;19.700;2023-02-04T06:56:38;-0.70;99.90
21849;DHT22;11089;49.852;19.700;2023-02-04T06:59:39;-0.60;99.90
21849;DHT22;11089;49.852;19.700;2023-02-04T07:02:40;-0.40;99.90
21849;DHT22;11089;49.852;19.700;2023-02-04T07:05:42;-0.60;99.90
21849;DHT22;11089;49.852;19.700;2023-02-04T07:08:42;-0.60;99.90
21849;DHT22;11089;49.852;19.700;2023-02-04T07:11:43;-0.60;99.90
21849;DHT22;11089;49.852;19.700;2023-02-04T07:14:44;-0.70;99.90
21849;DHT22;11089;49.852;19.700;2023-02-04T07:17:45;-0.80;99.90
21849;DHT22;11089;49.852;19.700;2023-02-04T07:20:46;-0.70;99.90
21849;DHT22;11089;49.852;19.700;2023-02-04T07:23:47;-0.60;99.90
21849;DHT22;11089;49.852;19.700;2023-02-04T07:26:48;-0.70;99.90
21849;DHT22;11089;49.852;19.700;2023-02-04T07:29:49;-0.70;99.90
21849;DHT22;11089;49.852;19.700;2023-02-04T07:32:50;-0.60;99.90
21849;DHT22;11089;49.852;19.700;2023-02-04T07:35:51;-0.60;99.90
21849;DHT22;11089;49.852;19.700;2023-02-04T07:38:52;-0.70;99.90
21849;DHT22;11089;49.852;19.700;2023-02-04T07:41:53;-0.70;99.90
21849;DHT22;11089;49.852;19.700;2023-02-04T07:44:54;-0.70;99.90
21849;DHT22;11089;49.852;19.700;2023-02-04T07:47:55;-0.70;99.90
21849;DHT22;11089;49.852;19.700;2023-02-04T07:50:56;-0.70;99.90
21849;DHT22;11089;49.852;19.700;2023-02-04T07:53:56;-0.70;99.90
21849;DHT22;11089;49.852;19.700;2023-02-04T07:56:57;-0.70;99.90
21849;DHT22;11089;49.852;19.700;2023-02-04T07:59:58;-0.70;99.90
21849;DHT22;11089;49.852;19.700;2023-02-04T08:02:59;-0.70;99.90
21849;DHT22;11089;49.852;19.700;2023-02-04T08:06:01;-0.80;99.90
21849;DHT22;11089;49.852;19.700;2023-02-04T08:09:01;-0.90;99.90
21849;DHT22;11089;49.852;19.700;2023-02-04T08:12:02;-0.70;99.90
21849;DHT22;11089;49.852;19.700;2023-02-04T08:15:04;-0.70;99.90
21849;DHT22;11089;49.852;19.700;2023-02-04T08:18:07;-0.70;99.90
21849;DHT22;11089;49.852;19.700;2023-02-04T08:21:08;-0.80;99.90
21849;DHT22;11089;49.852;19.700;2023-02-04T08:24:09;-0.80;99.90
21849;DHT22;11089;49.852;19.700;2023-02-04T08:27:10;-0.80;99.90
21849;DHT22;11089;49.852;19.700;2023-02-04T08:30:11;-0.80;99.90
21849;DHT22;11089;49.852;19.700;2023-02-04T08:33:12;-0.70;99.90
21849;DHT22;11089;49.852;19.700;2023-02-04T08:36:14;-0.80;99.90
21849;DHT22;11089;49.852;19.700;2023-02-04T08:39:14;-0.70;99.90
21849;DHT22;11089;49.852;19.700;2023-02-04T08:42:15;-0.70;99.90
21849;DHT22;11089;49.852;19.700;2023-02-04T08:45:16;-0.60;99.90
21849;DHT22;11089;49.852;19.700;2023-02-04T08:48:17;-0.50;99.90
21849;DHT22;11089;49.852;19.700;2023-02-04T08:51:18;-0.60;99.90
21849;DHT22;11089;49.852;19.700;2023-02-04T08:54:19;-0.60;99.90
21849;DHT22;11089;49.852;19.700;2023-02-04T08:57:20;-0.50;99.90
21849;DHT22;11089;49.852;19.700;2023-02-04T09:00:22;-0.60;99.90
21849;DHT22;11089;49.852;19.700;2023-02-04T09:03:22;-0.60;99.90
21849;DHT22;11089;49.852;19.700;2023-02-04T09:06:23;-0.70;99.90
21849;DHT22;11089;49.852;19.700;2023-02-04T09:09:24;-0.60;99.90
21849;DHT22;11089;49.852;19.700;2023-02-04T09:12:25;-0.50;99.90
21849;DHT22;11089;49.852;19.700;2023-02-04T09:15:26;-0.50;99.90
21849;DHT22;11089;49.852;19.700;2023-02-04T09:18:27;-0.50;99.90
21849;DHT22;11089;49.852;19.700;2023-02-04T09:21:30;-0.30;99.90
21849;DHT22;11089;49.852;19.700;2023-02-04T09:24:31;0.00;99.90
21849;DHT22;11089;49.852;19.700;2023-02-04T09:27:32;0.00;99.90
21849;DHT22;11089;49.852;19.700;2023-02-04T09:30:33;0.00;99.90
21849;DHT22;11089;49.852;19.700;2023-02-04T09:33:34;0.00;99.90
21849;DHT22;11089;49.852;19.700;2023-02-04T09:36:35;0.10;99.90
21849;DHT22;11089;49.852;19.700;2023-02-04T09:39:38;0.10;99.90
21849;DHT22;11089;49.852;19.700;2023-02-04T09:42:39;-0.20;99.90
21849;DHT22;11089;49.852;19.700;2023-02-04T09:45:40;-0.20;99.90
21849;DHT22;11089;49.852;19.700;2023-02-04T09:48:41;-0.20;99.90
21849;DHT22;11089;49.852;19.700;2023-02-04T09:51:45;-0.20;99.90
21849;DHT22;11089;49.852;19.700;2023-02-04T09:54:47;-0.20;99.90
21849;DHT22;11089;49.852;19.700;2023-02-04T09:57:48;-0.30;99.90
21849;DHT22;11089;49.852;19.700;2023-02-04T10:00:59;-0.30;99.90
21849;DHT22;11089;49.852;19.700;2023-02-04T10:04:01;-0.20;99.90
21849;DHT22;11089;49.852;19.700;2023-02-04T10:07:02;-0.10;99.90
21849;DHT22;11089;49.852;19.700;2023-02-04T10:10:03;-0.20;99.90
21849;DHT22;11089;49.852;19.700;2023-02-04T10:13:05;-0.10;99.90
21849;DHT22;11089;49.852;19.700;2023-02-04T10:16:19;-0.20;99.90
21849;DHT22;11089;49.852;19.700;2023-02-04T10:19:21;-0.20;99.90
21849;DHT22;11089;49.852;19.700;2023-02-04T10:22:22;-0.20;99.90
21849;DHT22;11089;49.852;19.700;2023-02-04T10:25:24;-0.10;99.90
21849;DHT22;11089;49.852;19.700;2023-02-04T10:28:33;-0.20;99.90
21849;DHT22;11089;49.852;19.700;2023-02-04T10:31:37;-0.20;33.90
21849;DHT22;11089;49.852;19.700;2023-02-04T10:34:39;-0.20;99.90
21849;DHT22;11089;49.852;19.700;2023-02-04T10:37:40;0.00;99.90
21849;DHT22;11089;49.852;19.700;2023-02-04T10:40:41;0.20;99.90
21849;DHT22;11089;49.852;19.700;2023-02-04T10:43:42;0.20;93.10
21849;DHT22;11089;49.852;19.700;2023-02-04T10:46:43;0.10;4.60
21849;DHT22;11089;49.852;19.700;2023-02-04T10:50:16;-0.20;55.30
21849;DHT22;11089;49.852;19.700;2023-02-04T10:53:20;0.20;99.90
21849;DHT22;11089;49.852;19.700;2023-02-04T10:56:35;1.60;99.90
21849;DHT22;11089;49.852;19.700;2023-02-04T10:59:36;2.20;1.00
21849;DHT22;11089;49.852;19.700;2023-02-04T11:05:56;1.80;1.00
21849;DHT22;11089;49.852;19.700;2023-02-04T11:08:58;1.80;1.00
21849;DHT22;11089;49.852;19.700;2023-02-04T11:11:59;1.40;99.90
21849;DHT22;11089;49.852;19.700;2023-02-04T11:15:00;1.50;1.00
21849;DHT22;11089;49.852;19.700;2023-02-04T11:18:06;2.00;26.00
21849;DHT22;11089;49.852;19.700;2023-02-04T11:21:14;2.60;1.00
21849;DHT22;11089;49.852;19.700;2023-02-04T11:24:24;2.70;1.00
21849;DHT22;11089;49.852;19.700;2023-02-04T11:27:37;2.40;1.00
21849;DHT22;11089;49.852;19.700;2023-02-04T11:30:38;1.90;99.90
21849;DHT22;11089;49.852;19.700;2023-02-04T11:33:41;1.70;1.00
21849;DHT22;11089;49.852;19.700;2023-02-04T11:40:13;2.30;99.90
21849;DHT22;11089;49.852;19.700;2023-02-04T11:43:19;3.00;99.90
21849;DHT22;11089;49.852;19.700;2023-02-04T11:46:20;2.70;99.90
21849;DHT22;11089;49.852;19.700;2023-02-04T11:49:25;2.60;99.90
21849;DHT22;11089;49.852;19.700;2023-02-04T11:52:26;2.00;99.90
21849;DHT22;11089;49.852;19.700;2023-02-04T11:55:33;1.50;99.90
21849;DHT22;11089;49.852;19.700;2023-02-04T11:58:39;1.40;99.90
21849;DHT22;11089;49.852;19.700;2023-02-04T12:01:41;1.90;99.90
21849;DHT22;11089;49.852;19.700;2023-02-04T12:04:56;2.10;34.20
21849;DHT22;11089;49.852;19.700;2023-02-04T12:08:22;1.60;1.00
21849;DHT22;11089;49.852;19.700;2023-02-04T12:11:27;1.70;1.00
21849;DHT22;11089;49.852;19.700;2023-02-04T12:14:37;2.20;99.90
21849;DHT22;11089;49.852;19.700;2023-02-04T12:17:38;2.20;1.00
21849;DHT22;11089;49.852;19.700;2023-02-04T12:20:39;1.90;1.00
21849;DHT22;11089;49.852;19.700;2023-02-04T12:23:40;1.60;1.00
21849;DHT22;11089;49.852;19.700;2023-02-04T12:26:43;1.80;99.90
21849;DHT22;11089;49.852;19.700;2023-02-04T12:29:45;1.80;99.90
21849;DHT22;11089;49.852;19.700;2023-02-04T12:32:46;2.00;1.00
21849;DHT22;11089;49.852;19.700;2023-02-04T12:35:47;1.70;1.00
21849;DHT22;11089;49.852;19.700;2023-02-04T12:38:48;1.40;99.90
21849;DHT22;11089;49.852;19.700;2023-02-04T12:41:49;1.10;1.00
21849;DHT22;11089;49.852;19.700;2023-02-04T12:44:50;1.00;99.90
21849;DHT22;11089;49.852;19.700;2023-02-04T12:47:51;0.80;99.90
21849;DHT22;11089;49.852;19.700;2023-02-04T12:50:52;0.90;99.90
21849;DHT22;11089;49.852;19.700;2023-02-04T12:53:53;0.70;99.90
21849;DHT22;11089;49.852;19.700;2023-02-04T12:56:54;0.40;1.00
21849;DHT22;11089;49.852;19.700;2023-02-04T12:59:57;0.10;1.00
21849;DHT22;11089;49.852;19.700;2023-02-04T13:02:59;0.20;1.00
21849;DHT22;11089;49.852;19.700;2023-02-04T13:06:00;0.00;1.00
21849;DHT22;11089;49.852;19.700;2023-02-04T13:09:01;-0.20;1.00
21849;DHT22;11089;49.852;19.700;2023-02-04T13:12:02;-0.20;99.90
21849;DHT22;11089;49.852;19.700;2023-02-04T13:15:04;-0.10;1.00
21849;DHT22;11089;49.852;19.700;2023-02-04T13:18:05;-0.30;99.90
21849;DHT22;11089;49.852;19.700;2023-02-04T13:21:07;-0.30;1.00
21849;DHT22;11089;49.852;19.700;2023-02-04T13:24:08;-0.30;1.00
21849;DHT22;11089;49.852;19.700;2023-02-04T13:27:09;-0.40;99.90
21849;DHT22;11089;49.852;19.700;2023-02-04T13:30:12;-0.30;99.90
21849;DHT22;11089;49.852;19.700;2023-02-04T13:33:14;-0.30;99.90
21849;DHT22;11089;49.852;19.700;2023-02-04T13:36:16;-0.40;99.90
21849;DHT22;11089;49.852;19.700;2023-02-04T13:39:17;-0.20;1.00
21849;DHT22;11089;49.852;19.700;2023-02-04T13:42:18;-0.40;99.90
21849;DHT22;11089;49.852;19.700;2023-02-04T13:45:19;-0.40;99.90
21849;DHT22;11089;49.852;19.700;2023-02-04T13:48:20;-0.60;99.90
21849;DHT22;11089;49.852;19.700;2023-02-04T13:51:21;-0.50;99.90
21849;DHT22;11089;49.852;19.700;2023-02-04T13:54:22;-0.60;99.90
21849;DHT22;11089;49.852;19.700;2023-02-04T13:57:23;-0.60;99.90
21849;DHT22;11089;49.852;19.700;2023-02-04T14:00:24;-0.70;99.90
21849;DHT22;11089;49.852;19.700;2023-02-04T14:03:26;-0.60;99.90
21849;DHT22;11089;49.852;19.700;2023-02-04T14:06:27;-0.60;94.60
21849;DHT22;11089;49.852;19.700;2023-02-04T14:09:33;-0.60;99.90
21849;DHT22;11089;49.852;19.700;2023-02-04T14:12:34;-0.50;99.90
21849;DHT22;11089;49.852;19.700;2023-02-04T14:15:35;-0.60;99.90
21849;DHT22;11089;49.852;19.700;2023-02-04T14:18:37;-0.80;99.90
21849;DHT22;11089;49.852;19.700;2023-02-04T14:21:38;-0.90;99.90
21849;DHT22;11089;49.852;19.700;2023-02-04T14:24:39;-0.90;1.00
21849;DHT22;11089;49.852;19.700;2023-02-04T14:27:42;-1.10;99.90
21849;DHT22;11089;49.852;19.700;2023-02-04T14:30:42;-1.00;1.00
21849;DHT22;11089;49.852;19.700;2023-02-04T14:33:43;-1.10;1.00
21849;DHT22;11089;49.852;19.700;2023-02-04T14:36:44;-1.00;1.00
21849;DHT22;11089;49.852;19.700;2023-02-04T14:39:45;-1.00;1.00
21849;DHT22;11089;49.852;19.700;2023-02-04T14:42:46;-1.10;1.00
21849;DHT22;11089;49.852;19.700;2023-02-04T14:45:47;-1.10;99.90
21849;DHT22;11089;49.852;19.700;2023-02-04T14:48:48;-1.00;99.90
21849;DHT22;11089;49.852;19.700;2023-02-04T14:51:51;-0.90;99.90
21849;DHT22;11089;49.852;19.700;2023-02-04T14:54:52;-0.90;99.90
21849;DHT22;11089;49.852;19.700;2023-02-04T14:57:53;-0.90;99.90
21849;DHT22;11089;49.852;19.700;2023-02-04T15:00:54;-0.80;1.00
21849;DHT22;11089;49.852;19.700;2023-02-04T15:03:55;-0.80;99.90
21849;DHT22;11089;49.852;19.700;2023-02-04T15:06:56;-0.70;99.90
21849;DHT22;11089;49.852;19.700;2023-02-04T15:09:58;-0.60;1.00
21849;DHT22;11089;49.852;19.700;2023-02-04T15:12:59;-0.50;1.00
21849;DHT22;11089;49.852;19.700;2023-02-04T15:16:00;-0.50;99.90
21849;DHT22;11089;49.852;19.700;2023-02-04T15:19:01;-0.70;1.00
21849;DHT22;11089;49.852;19.700;2023-02-04T15:22:02;-0.70;1.00
21849;DHT22;11089;49.852;19.700;2023-02-04T15:25:04;-0.80;1.00
21849;DHT22;11089;49.852;19.700;2023-02-04T15:28:06;-0.70;1.00
21849;DHT22;11089;49.852;19.700;2023-02-04T15:31:06;-0.70;99.90
21849;DHT22;11089;49.852;19.700;2023-02-04T15:34:07;-0.70;99.90
21849;DHT22;11089;49.852;19.700;2023-02-04T15:37:08;-0.70;99.90
21849;DHT22;11089;49.852;19.700;2023-02-04T15:40:10;-0.80;99.90
21849;DHT22;11089;49.852;19.700;2023-02-04T15:43:11;-0.80;99.90
21849;DHT22;11089;49.852;19.700;2023-02-04T15:46:12;-0.80;1.00
21849;DHT22;11089;49.852;19.700;2023-02-04T15:49:13;-0.80;92.30
21849;DHT22;11089;49.852;19.700;2023-02-04T15:52:14;-0.80;1.00
21849;DHT22;11089;49.852;19.700;2023-02-04T15:55:15;-0.80;1.00
21849;DHT22;11089;49.852;19.700;2023-02-04T15:58:16;-0.80;1.00
21849;DHT22;11089;49.852;19.700;2023-02-04T16:01:17;-0.70;1.00
21849;DHT22;11089;49.852;19.700;2023-02-04T16:04:19;-0.80;1.00
21849;DHT22;11089;49.852;19.700;2023-02-04T16:07:20;-0.80;99.90
21849;DHT22;11089;49.852;19.700;2023-02-04T16:10:21;-0.90;1.00
21849;DHT22;11089;49.852;19.700;2023-02-04T16:13:22;-0.80;1.00
21849;DHT22;11089;49.852;19.700;2023-02-04T16:16:23;-0.90;1.00
21849;DHT22;11089;49.852;19.700;2023-02-04T16:19:24;-0.90;1.00
21849;DHT22;11089;49.852;19.700;2023-02-04T16:22:25;-0.90;1.00
21849;DHT22;11089;49.852;19.700;2023-02-04T16:25:26;-1.00;1.00
21849;DHT22;11089;49.852;19.700;2023-02-04T16:28:27;-1.00;1.00
21849;DHT22;11089;49.852;19.700;2023-02-04T16:31:28;-1.00;1.00
21849;DHT22;11089;49.852;19.700;2023-02-04T16:34:29;-1.00;50.00
21849;DHT22;11089;49.852;19.700;2023-02-04T16:37:30;-1.00;1.00
21849;DHT22;11089;49.852;19.700;2023-02-04T16:40:31;-1.10;1.00
21849;DHT22;11089;49.852;19.700;2023-02-04T16:43:32;-1.10;1.00
21849;DHT22;11089;49.852;19.700;2023-02-04T16:46:33;-1.10;1.00
21849;DHT22;11089;49.852;19.700;2023-02-04T16:49:34;-1.10;1.00
21849;DHT22;11089;49.852;19.700;2023-02-04T16:52:35;-1.00;1.00
21849;DHT22;11089;49.852;19.700;2023-02-04T16:55:36;-1.10;1.00
21849;DHT22;11089;49.852;19.700;2023-02-04T16:58:38;-1.10;1.00
21849;DHT22;11089;49.852;19.700;2023-02-04T17:01:39;-1.00;99.90
21849;DHT22;11089;49.852;19.700;2023-02-04T17:04:40;-1.00;1.00
21849;DHT22;11089;49.852;19.700;2023-02-04T17:07:41;-1.00;1.00
21849;DHT22;11089;49.852;19.700;2023-02-04T17:10:42;-1.00;1.00
21849;DHT22;11089;49.852;19.700;2023-02-04T17:14:05;-1.00;99.90
21849;DHT22;11089;49.852;19.700;2023-02-04T17:17:08;-1.10;1.00
21849;DHT22;11089;49.852;19.700;2023-02-04T17:20:09;-1.10;1.00
21849;DHT22;11089;49.852;19.700;2023-02-04T17:23:10;-1.10;99.90
21849;DHT22;11089;49.852;19.700;2023-02-04T17:26:11;-1.00;1.00
21849;DHT22;11089;49.852;19.700;2023-02-04T17:29:14;-1.20;99.90
21849;DHT22;11089;49.852;19.700;2023-02-04T17:32:21;-1.20;99.90
21849;DHT22;11089;49.852;19.700;2023-02-04T17:35:22;-1.20;99.90
21849;DHT22;11089;49.852;19.700;2023-02-04T17:38:23;-1.20;1.00
21849;DHT22;11089;49.852;19.700;2023-02-04T17:41:24;-1.30;1.00
21849;DHT22;11089;49.852;19.700;2023-02-04T17:44:25;-1.30;1.00
21849;DHT22;11089;49.852;19.700;2023-02-04T17:47:26;-1.30;99.90
21849;DHT22;11089;49.852;19.700;2023-02-04T17:50:26;-1.30;99.90
21849;DHT22;11089;49.852;19.700;2023-02-04T17:53:27;-1.30;1.00
21849;DHT22;11089;49.852;19.700;2023-02-04T17:56:28;-1.20;99.90
21849;DHT22;11089;49.852;19.700;2023-02-04T17:59:29;-1.30;99.90
21849;DHT22;11089;49.852;19.700;2023-02-04T18:02:30;-1.20;1.00
21849;DHT22;11089;49.852;19.700;2023-02-04T18:05:33;-1.20;99.90
21849;DHT22;11089;49.852;19.700;2023-02-04T18:08:37;-1.20;99.90
21849;DHT22;11089;49.852;19.700;2023-02-04T18:11:39;-1.20;1.00
21849;DHT22;11089;49.852;19.700;2023-02-04T18:14:40;-1.20;99.90
21849;DHT22;11089;49.852;19.700;2023-02-04T18:17:44;-1.20;99.90
21849;DHT22;11089;49.852;19.700;2023-02-04T18:20:46;-1.30;1.00
21849;DHT22;11089;49.852;19.700;2023-02-04T18:23:58;-1.20;1.00
21849;DHT22;11089;49.852;19.700;2023-02-04T18:27:07;-1.20;1.00
21849;DHT22;11089;49.852;19.700;2023-02-04T18:30:18;-1.20;1.00
21849;DHT22;11089;49.852;19.700;2023-02-04T18:33:25;-1.20;1.00
21849;DHT22;11089;49.852;19.700;2023-02-04T18:36:26;-1.20;1.00
21849;DHT22;11089;49.852;19.700;2023-02-04T18:39:29;-1.20;1.00
21849;DHT22;11089;49.852;19.700;2023-02-04T18:42:32;-1.30;1.00
21849;DHT22;11089;49.852;19.700;2023-02-04T18:45:34;-1.30;1.00
21849;DHT22;11089;49.852;19.700;2023-02-04T18:48:55;-1.30;1.00
21849;DHT22;11089;49.852;19.700;2023-02-04T18:51:58;-1.40;1.00
21849;DHT22;11089;49.852;19.700;2023-02-04T18:58:35;-1.30;1.00
21849;DHT22;11089;49.852;19.700;2023-02-04T19:01:38;-1.40;94.70
21849;DHT22;11089;49.852;19.700;2023-02-04T19:04:39;-1.50;99.90
21849;DHT22;11089;49.852;19.700;2023-02-04T19:07:40;-1.50;99.90
21849;DHT22;11089;49.852;19.700;2023-02-04T19:10:41;-1.40;99.90
21849;DHT22;11089;49.852;19.700;2023-02-04T19:13:42;-1.40;99.90